sensor_id;sensor_type;location;lat;lon;timestamp;temperature;humidity
6018;DHT22;3037;51.068;13.780;2023-08-21T00:01:14;21.90;99.90
6018;DHT22;3037;51.068;13.780;2023-08-21T00:03:40;21.80;99.90
6018;DHT22;3037;51.068;13.780;2023-08-21T00:06:05;21.70;99.90
6018;DHT22;3037;51.068;13.780;2023-08-21T00:08:31;21.70;99.90
6018;DHT22;3037;51.068;13.780;2023-08-21T00:10:56;21.60;99.90
6018;DHT22;3037;51.068;13.780;2023-08-21T00:13:22;21.50;99.90
6018;DHT22;3037;51.068;13.780;2023-08-21T00:15:47;21.60;99.90
6018;DHT22;3037;51.068;13.780;2023-08-21T00:18:13;21.70;99.90
6018;DHT22;3037;51.068;13.780;2023-08-21T00:20:39;21.60;99.90
6018;DHT22;3037;51.068;13.780;2023-08-21T00:23:07;21.50;99.90
6018;DHT22;3037;51.068;13.780;2023-08-21T00:25:33;21.50;99.90
6018;DHT22;3037;51.068;13.780;2023-08-21T00:27:59;21.50;99.90
6018;DHT22;3037;51.068;13.780;2023-08-21T00:30:24;21.50;99.90
6018;DHT22;3037;51.068;13.780;2023-08-21T00:32:50;21.40;99.90
6018;DHT22;3037;51.068;13.780;2023-08-21T00:35:15;21.40;99.90
6018;DHT22;3037;51.068;13.780;2023-08-21T00:37:41;21.30;99.90
6018;DHT22;3037;51.068;13.780;2023-08-21T00:40:07;21.20;99.90
6018;DHT22;3037;51.068;13.780;2023-08-21T00:42:33;21.20;99.90
6018;DHT22;3037;51.068;13.780;2023-08-21T00:44:58;21.30;99.90
6018;DHT22;3037;51.068;13.780;2023-08-21T00:47:24;21.30;99.90
6018;DHT22;3037;51.068;13.780;2023-08-21T00:49:50;21.30;99.90
6018;DHT22;3037;51.068;13.780;2023-08-21T00:52:17;21.30;99.90
6018;DHT22;3037;51.068;13.780;2023-08-21T00:54:43;21.30;99.90
6018;DHT22;3037;51.068;13.780;2023-08-21T00:57:09;21.30;99.90
6018;DHT22;3037;51.068;13.780;2023-08-21T00:59:35;21.30;99.90
6018;DHT22;3037;51.068;13.780;2023-08-21T01:02:01;21.30;99.90
6018;DHT22;3037;51.068;13.780;2023-08-21T01:04:26;21.30;99.90
6018;DHT22;3037;51.068;13.780;2023-08-21T01:06:52;21.20;99.90
6018;DHT22;3037;51.068;13.780;2023-08-21T01:09:28;21.30;99.90
6018;DHT22;3037;51.068;13.780;2023-08-21T01:14:42;21.30;99.90
6018;DHT22;3037;51.068;13.780;2023-08-21T01:17:09;21.30;99.90
6018;DHT22;3037;51.068;13.780;2023-08-21T01:19:41;21.20;99.90
6018;DHT22;3037;51.068;13.780;2023-08-21T01:22:07;21.10;99.90
6018;DHT22;3037;51.068;13.780;2023-08-21T01:24:33;21.10;99.90
6018;DHT22;3037;51.068;13.780;2023-08-21T01:26:59;21.10;99.90
6018;DHT22;3037;51.068;13.780;2023-08-21T01:29:25;21.10;99.90
6018;DHT22;3037;51.068;13.780;2023-08-21T01:32:03;21.00;99.90
6018;DHT22;3037;51.068;13.780;2023-08-21T01:34:31;20.90;99.90
6018;DHT22;3037;51.068;13.780;2023-08-21T01:36:59;20.80;99.90
6018;DHT22;3037;51.068;13.780;2023-08-21T01:39:25;20.70;99.90
6018;DHT22;3037;51.068;13.780;2023-08-21T01:41:51;20.60;99.90
6018;DHT22;3037;51.068;13.780;2023-08-21T01:44:16;20.60;99.90
6018;DHT22;3037;51.068;13.780;2023-08-21T01:46:42;20.60;99.90
6018;DHT22;3037;51.068;13.780;2023-08-21T01:49:07;20.60;99.90
6018;DHT22;3037;51.068;13.780;2023-08-21T01:51:33;20.60;99.90
6018;DHT22;3037;51.068;13.780;2023-08-21T01:53:58;20.60;99.90
6018;DHT22;3037;51.068;13.780;2023-08-21T01:56:24;20.70;99.90
6018;DHT22;3037;51.068;13.780;2023-08-21T01:58:49;20.60;99.90
6018;DHT22;3037;51.068;13.780;2023-08-21T02:01:15;20.80;99.90
6018;DHT22;3037;51.068;13.780;2023-08-21T02:03:40;20.70;99.90
6018;DHT22;3037;51.068;13.780;2023-08-21T02:06:07;20.70;99.90
6018;DHT22;3037;51.068;13.780;2023-08-21T02:08:32;20.70;99.90
6018;DHT22;3037;51.068;13.780;2023-08-21T02:10:58;20.60;99.90
6018;DHT22;3037;51.068;13.780;2023-08-21T02:13:24;20.50;99.90
6018;DHT22;3037;51.068;13.780;2023-08-21T02:15:49;20.50;99.90
6018;DHT22;3037;51.068;13.780;2023-08-21T02:18:15;20.50;99.90
6018;DHT22;3037;51.068;13.780;2023-08-21T02:20:41;20.40;99.90
6018;DHT22;3037;51.068;13.780;2023-08-21T02:23:06;20.40;99.90
6018;DHT22;3037;51.068;13.780;2023-08-21T02:25:32;20.30;99.90
6018;DHT22;3037;51.068;13.780;2023-08-21T02:27:58;20.30;99.90
6018;DHT22;3037;51.068;13.780;2023-08-21T02:30:23;20.30;99.90
6018;DHT22;3037;51.068;13.780;2023-08-21T02:32:51;20.20;99.90
6018;DHT22;3037;51.068;13.780;2023-08-21T02:35:17;20.20;99.90
6018;DHT22;3037;51.068;13.780;2023-08-21T02:37:43;20.10;99.90
6018;DHT22;3037;51.068;13.780;2023-08-21T02:40:08;20.10;99.90
6018;DHT22;3037;51.068;13.780;2023-08-21T02:42:34;20.20;99.90
6018;DHT22;3037;51.068;13.780;2023-08-21T02:45:00;20.20;99.90
6018;DHT22;3037;51.068;13.780;2023-08-21T02:47:29;20.20;99.90
6018;DHT22;3037;51.068;13.780;2023-08-21T02:49:55;20.20;99.90
6018;DHT22;3037;51.068;13.780;2023-08-21T02:52:20;20.20;99.90
6018;DHT22;3037;51.068;13.780;2023-08-21T02:54:46;20.20;99.90
6018;DHT22;3037;51.068;13.780;2023-08-21T02:57:11;20.10;99.90
6018;DHT22;3037;51.068;13.780;2023-08-21T02:59:37;20.10;99.90
6018;DHT22;3037;51.068;13.780;2023-08-21T03:02:02;20.10;99.90
6018;DHT22;3037;51.068;13.780;2023-08-21T03:04:28;20.00;99.90
6018;DHT22;3037;51.068;13.780;2023-08-21T03:06:54;20.00;99.90
6018;DHT22;3037;51.068;13.780;2023-08-21T03:09:19;19.90;99.90
6018;DHT22;3037;51.068;13.780;2023-08-21T03:11:44;19.90;99.90
6018;DHT22;3037;51.068;13.780;2023-08-21T03:14:10;20.00;99.90
6018;DHT22;3037;51.068;13.780;2023-08-21T03:16:35;20.10;99.90
6018;DHT22;3037;51.068;13.780;2023-08-21T03:19:01;20.10;99.90
6018;DHT22;3037;51.068;13.780;2023-08-21T03:21:27;20.20;99.90
6018;DHT22;3037;51.068;13.780;2023-08-21T03:23:57;20.10;99.90
6018;DHT22;3037;51.068;13.780;2023-08-21T03:26:24;20.10;99.90
6018;DHT22;3037;51.068;13.780;2023-08-21T03:28:50;20.10;99.90
6018;DHT22;3037;51.068;13.780;2023-08-21T03:31:15;20.20;99.90
6018;DHT22;3037;51.068;13.780;2023-08-21T03:33:41;20.20;99.90
6018;DHT22;3037;51.068;13.780;2023-08-21T03:36:07;20.20;99.90
6018;DHT22;3037;51.068;13.780;2023-08-21T03:38:32;20.10;99.90
6018;DHT22;3037;51.068;13.780;2023-08-21T03:40:59;20.20;99.90
6018;DHT22;3037;51.068;13.780;2023-08-21T03:43:24;20.20;99.90
6018;DHT22;3037;51.068;13.780;2023-08-21T03:45:50;20.10;99.90
6018;DHT22;3037;51.068;13.780;2023-08-21T03:48:15;20.10;99.90
6018;DHT22;3037;51.068;13.780;2023-08-21T03:50:41;20.00;99.90
6018;DHT22;3037;51.068;13.780;2023-08-21T03:53:06;20.10;99.90
6018;DHT22;3037;51.068;13.780;2023-08-21T03:55:32;20.10;99.90
6018;DHT22;3037;51.068;13.780;2023-08-21T03:57:58;20.30;99.90
6018;DHT22;3037;51.068;13.780;2023-08-21T04:00:24;20.10;99.90
6018;DHT22;3037;51.068;13.780;2023-08-21T04:02:49;20.10;99.90
6018;DHT22;3037;51.068;13.780;2023-08-21T04:05:15;20.10;99.90
6018;DHT22;3037;51.068;13.780;2023-08-21T04:07:41;20.10;99.90
6018;DHT22;3037;51.068;13.780;2023-08-21T04:10:07;20.30;99.90
6018;DHT22;3037;51.068;13.780;2023-08-21T04:12:32;20.40;99.90
6018;DHT22;3037;51.068;13.780;2023-08-21T04:14:58;20.50;99.90
6018;DHT22;3037;51.068;13.780;2023-08-21T04:17:24;20.50;99.90
6018;DHT22;3037;51.068;13.780;2023-08-21T04:19:50;20.40;99.90
6018;DHT22;3037;51.068;13.780;2023-08-21T04:22:16;20.30;99.90
6018;DHT22;3037;51.068;13.780;2023-08-21T04:24:42;20.20;99.90
6018;DHT22;3037;51.068;13.780;2023-08-21T04:27:07;20.30;99.90
6018;DHT22;3037;51.068;13.780;2023-08-21T04:29:35;20.30;99.90
6018;DHT22;3037;51.068;13.780;2023-08-21T04:32:00;20.30;99.90
6018;DHT22;3037;51.068;13.780;2023-08-21T04:34:26;20.30;99.90
6018;DHT22;3037;51.068;13.780;2023-08-21T04:36:51;20.30;99.90
6018;DHT22;3037;51.068;13.780;2023-08-21T04:39:17;20.50;99.90
6018;DHT22;3037;51.068;13.780;2023-08-21T04:41:43;20.50;99.90
6018;DHT22;3037;51.068;13.780;2023-08-21T04:44:09;20.50;99.90
6018;DHT22;3037;51.068;13.780;2023-08-21T04:46:34;20.50;99.90
6018;DHT22;3037;51.068;13.780;2023-08-21T04:49:00;20.80;99.90
6018;DHT22;3037;51.068;13.780;2023-08-21T04:51:25;21.00;99.90
6018;DHT22;3037;51.068;13.780;2023-08-21T04:53:51;21.10;99.90
6018;DHT22;3037;51.068;13.780;2023-08-21T04:56:16;21.40;99.90
6018;DHT22;3037;51.068;13.780;2023-08-21T04:58:42;21.30;99.90
6018;DHT22;3037;51.068;13.780;2023-08-21T05:01:07;21.00;99.90
6018;DHT22;3037;51.068;13.780;2023-08-21T05:03:33;20.90;99.90
6018;DHT22;3037;51.068;13.780;2023-08-21T05:05:58;20.90;99.90
6018;DHT22;3037;51.068;13.780;2023-08-21T05:08:25;21.00;99.90
6018;DHT22;3037;51.068;13.780;2023-08-21T05:10:55;21.20;99.90
6018;DHT22;3037;51.068;13.780;2023-08-21T05:13:21;21.10;99.90
6018;DHT22;3037;51.068;13.780;2023-08-21T05:15:57;21.20;99.90
6018;DHT22;3037;51.068;13.780;2023-08-21T05:18:24;21.30;99.90
6018;DHT22;3037;51.068;13.780;2023-08-21T05:20:50;21.40;99.90
6018;DHT22;3037;51.068;13.780;2023-08-21T05:23:15;21.50;99.90
6018;DHT22;3037;51.068;13.780;2023-08-21T05:25:42;21.60;99.90
6018;DHT22;3037;51.068;13.780;2023-08-21T05:28:08;21.70;99.90
6018;DHT22;3037;51.068;13.780;2023-08-21T05:30:36;21.80;99.90
6018;DHT22;3037;51.068;13.780;2023-08-21T05:33:02;21.90;99.90
6018;DHT22;3037;51.068;13.780;2023-08-21T05:35:27;22.00;99.90
6018;DHT22;3037;51.068;13.780;2023-08-21T05:37:53;22.20;99.90
6018;DHT22;3037;51.068;13.780;2023-08-21T05:40:18;22.30;99.90
6018;DHT22;3037;51.068;13.780;2023-08-21T05:42:44;22.40;99.90
6018;DHT22;3037;51.068;13.780;2023-08-21T05:45:10;22.40;99.90
6018;DHT22;3037;51.068;13.780;2023-08-21T05:47:35;22.60;99.90
6018;DHT22;3037;51.068;13.780;2023-08-21T05:50:01;22.80;99.90
6018;DHT22;3037;51.068;13.780;2023-08-21T05:52:27;23.00;99.90
6018;DHT22;3037;51.068;13.780;2023-08-21T05:54:52;23.00;99.90
6018;DHT22;3037;51.068;13.780;2023-08-21T05:57:18;22.90;99.90
6018;DHT22;3037;51.068;13.780;2023-08-21T05:59:47;23.20;99.90
6018;DHT22;3037;51.068;13.780;2023-08-21T06:02:13;23.20;99.90
6018;DHT22;3037;51.068;13.780;2023-08-21T06:04:42;23.10;99.90
6018;DHT22;3037;51.068;13.780;2023-08-21T06:07:09;23.40;99.90
6018;DHT22;3037;51.068;13.780;2023-08-21T06:09:35;25.60;1.00
6018;DHT22;3037;51.068;13.780;2023-08-21T06:12:02;27.10;1.00
6018;DHT22;3037;51.068;13.780;2023-08-21T06:14:27;27.90;1.00
6018;DHT22;3037;51.068;13.780;2023-08-21T06:17:00;28.30;99.90
6018;DHT22;3037;51.068;13.780;2023-08-21T06:19:25;29.50;87.30
6018;DHT22;3037;51.068;13.780;2023-08-21T06:21:51;30.30;1.00
6018;DHT22;3037;51.068;13.780;2023-08-21T06:24:16;30.00;1.00
6018;DHT22;3037;51.068;13.780;2023-08-21T06:26:42;30.30;1.00
6018;DHT22;3037;51.068;13.780;2023-08-21T06:29:07;30.70;1.00
6018;DHT22;3037;51.068;13.780;2023-08-21T06:31:33;31.30;1.00
6018;DHT22;3037;51.068;13.780;2023-08-21T06:33:58;31.80;1.00
6018;DHT22;3037;51.068;13.780;2023-08-21T06:36:24;31.70;1.00
6018;DHT22;3037;51.068;13.780;2023-08-21T06:38:49;32.20;1.00
6018;DHT22;3037;51.068;13.780;2023-08-21T06:41:15;30.80;1.00
6018;DHT22;3037;51.068;13.780;2023-08-21T06:43:40;28.90;13.10
6018;DHT22;3037;51.068;13.780;2023-08-21T06:46:07;28.30;99.90
6018;DHT22;3037;51.068;13.780;2023-08-21T06:48:34;30.80;1.00
6018;DHT22;3037;51.068;13.780;2023-08-21T06:50:59;33.20;1.00
6018;DHT22;3037;51.068;13.780;2023-08-21T06:53:25;33.50;1.00
6018;DHT22;3037;51.068;13.780;2023-08-21T06:55:50;32.90;1.00
6018;DHT22;3037;51.068;13.780;2023-08-21T06:58:16;31.50;1.00
6018;DHT22;3037;51.068;13.780;2023-08-21T07:00:41;32.10;1.00
6018;DHT22;3037;51.068;13.780;2023-08-21T07:03:07;31.50;1.00
6018;DHT22;3037;51.068;13.780;2023-08-21T07:05:33;30.80;1.00
6018;DHT22;3037;51.068;13.780;2023-08-21T07:07:59;31.30;1.00
6018;DHT22;3037;51.068;13.780;2023-08-21T07:10:25;32.50;1.00
6018;DHT22;3037;51.068;13.780;2023-08-21T07:12:50;33.40;1.00
6018;DHT22;3037;51.068;13.780;2023-08-21T07:15:16;35.20;1.00
6018;DHT22;3037;51.068;13.780;2023-08-21T07:17:42;34.50;1.00
6018;DHT22;3037;51.068;13.780;2023-08-21T07:20:07;33.40;1.00
6018;DHT22;3037;51.068;13.780;2023-08-21T07:22:33;31.80;1.00
6018;DHT22;3037;51.068;13.780;2023-08-21T07:24:59;30.70;1.00
6018;DHT22;3037;51.068;13.780;2023-08-21T07:27:29;30.30;1.00
6018;DHT22;3037;51.068;13.780;2023-08-21T07:29:54;30.10;1.00
6018;DHT22;3037;51.068;13.780;2023-08-21T07:32:20;30.30;1.00
6018;DHT22;3037;51.068;13.780;2023-08-21T07:34:46;30.00;1.00
6018;DHT22;3037;51.068;13.780;2023-08-21T07:37:11;30.60;1.00
6018;DHT22;3037;51.068;13.780;2023-08-21T07:39:37;32.60;1.00
6018;DHT22;3037;51.068;13.780;2023-08-21T07:42:02;34.10;1.00
6018;DHT22;3037;51.068;13.780;2023-08-21T07:44:28;34.90;1.00
6018;DHT22;3037;51.068;13.780;2023-08-21T07:46:53;36.30;1.00
6018;DHT22;3037;51.068;13.780;2023-08-21T07:49:19;36.50;1.00
6018;DHT22;3037;51.068;13.780;2023-08-21T07:51:44;37.30;1.00
6018;DHT22;3037;51.068;13.780;2023-08-21T07:54:10;36.60;1.00
6018;DHT22;3037;51.068;13.780;2023-08-21T07:56:37;36.70;1.00
6018;DHT22;3037;51.068;13.780;2023-08-21T07:59:03;38.30;1.00
6018;DHT22;3037;51.068;13.780;2023-08-21T08:01:28;38.80;1.00
6018;DHT22;3037;51.068;13.780;2023-08-21T08:03:54;38.70;1.00
6018;DHT22;3037;51.068;13.780;2023-08-21T08:06:19;38.30;1.00
6018;DHT22;3037;51.068;13.780;2023-08-21T08:08:45;39.10;1.00
6018;DHT22;3037;51.068;13.780;2023-08-21T08:11:11;39.90;1.00
6018;DHT22;3037;51.068;13.780;2023-08-21T08:13:36;40.30;1.00
6018;DHT22;3037;51.068;13.780;2023-08-21T08:16:02;40.40;1.00
6018;DHT22;3037;51.068;13.780;2023-08-21T08:18:28;39.40;1.00
6018;DHT22;3037;51.068;13.780;2023-08-21T08:20:53;38.90;1.00
6018;DHT22;3037;51.068;13.780;2023-08-21T08:23:19;39.20;1.00
6018;DHT22;3037;51.068;13.780;2023-08-21T08:25:45;39.90;1.00
6018;DHT22;3037;51.068;13.780;2023-08-21T08:28:10;40.60;1.00
6018;DHT22;3037;51.068;13.780;2023-08-21T08:30:36;40.40;1.00
6018;DHT22;3037;51.068;13.780;2023-08-21T08:33:02;40.30;1.00
6018;DHT22;3037;51.068;13.780;2023-08-21T08:35:27;41.00;1.00
6018;DHT22;3037;51.068;13.780;2023-08-21T08:37:53;40.30;1.00
6018;DHT22;3037;51.068;13.780;2023-08-21T08:40:18;40.60;1.00
6018;DHT22;3037;51.068;13.780;2023-08-21T08:42:44;42.10;1.00
6018;DHT22;3037;51.068;13.780;2023-08-21T08:45:12;41.40;1.00
6018;DHT22;3037;51.068;13.780;2023-08-21T08:47:40;41.20;1.00
6018;DHT22;3037;51.068;13.780;2023-08-21T08:50:06;42.40;1.00
6018;DHT22;3037;51.068;13.780;2023-08-21T08:52:38;41.50;1.00
6018;DHT22;3037;51.068;13.780;2023-08-21T08:55:04;42.10;1.00
6018;DHT22;3037;51.068;13.780;2023-08-21T08:57:32;41.90;1.00
6018;DHT22;3037;51.068;13.780;2023-08-21T08:59:58;41.00;1.00
6018;DHT22;3037;51.068;13.780;2023-08-21T09:02:25;40.50;1.00
6018;DHT22;3037;51.068;13.780;2023-08-21T09:04:52;40.60;1.00
6018;DHT22;3037;51.068;13.780;2023-08-21T09:07:17;40.30;1.00
6018;DHT22;3037;51.068;13.780;2023-08-21T09:09:46;41.40;1.00
6018;DHT22;3037;51.068;13.780;2023-08-21T09:12:15;41.10;1.00
6018;DHT22;3037;51.068;13.780;2023-08-21T09:14:41;41.10;1.00
6018;DHT22;3037;51.068;13.780;2023-08-21T09:17:07;40.50;1.00
6018;DHT22;3037;51.068;13.780;2023-08-21T09:19:33;40.60;1.00
6018;DHT22;3037;51.068;13.780;2023-08-21T09:22:07;41.20;1.00
6018;DHT22;3037;51.068;13.780;2023-08-21T09:24:33;40.20;1.00
6018;DHT22;3037;51.068;13.780;2023-08-21T09:26:59;39.20;1.00
6018;DHT22;3037;51.068;13.780;2023-08-21T09:29:27;39.30;1.00
6018;DHT22;3037;51.068;13.780;2023-08-21T09:31:56;37.70;1.00
6018;DHT22;3037;51.068;13.780;2023-08-21T09:34:22;37.50;1.00
6018;DHT22;3037;51.068;13.780;2023-08-21T09:36:54;36.40;1.00
6018;DHT22;3037;51.068;13.780;2023-08-21T09:39:20;35.90;1.00
6018;DHT22;3037;51.068;13.780;2023-08-21T09:41:55;35.40;1.00
6018;DHT22;3037;51.068;13.780;2023-08-21T09:44:21;35.80;1.00
6018;DHT22;3037;51.068;13.780;2023-08-21T09:46:50;35.40;1.00
6018;DHT22;3037;51.068;13.780;2023-08-21T09:49:17;35.00;1.00
6018;DHT22;3037;51.068;13.780;2023-08-21T09:51:43;34.20;1.00
6018;DHT22;3037;51.068;13.780;2023-08-21T09:54:11;35.90;1.00
6018;DHT22;3037;51.068;13.780;2023-08-21T09:56:37;37.40;1.00
6018;DHT22;3037;51.068;13.780;2023-08-21T09:59:03;37.40;1.00
6018;DHT22;3037;51.068;13.780;2023-08-21T10:01:31;37.80;1.00
6018;DHT22;3037;51.068;13.780;2023-08-21T10:04:02;37.30;1.00
6018;DHT22;3037;51.068;13.780;2023-08-21T10:06:29;36.60;1.00
6018;DHT22;3037;51.068;13.780;2023-08-21T10:08:56;37.90;1.00
6018;DHT22;3037;51.068;13.780;2023-08-21T10:11:23;38.20;1.00
6018;DHT22;3037;51.068;13.780;2023-08-21T10:13:49;39.30;1.00
6018;DHT22;3037;51.068;13.780;2023-08-21T10:16:17;39.80;1.00
6018;DHT22;3037;51.068;13.780;2023-08-21T10:18:44;40.00;1.00
6018;DHT22;3037;51.068;13.780;2023-08-21T10:21:19;40.10;1.00
6018;DHT22;3037;51.068;13.780;2023-08-21T10:23:49;39.20;1.00
6018;DHT22;3037;51.068;13.780;2023-08-21T10:26:19;37.50;1.00
6018;DHT22;3037;51.068;13.780;2023-08-21T10:28:55;37.60;1.00
6018;DHT22;3037;51.068;13.780;2023-08-21T10:31:33;37.00;1.00
6018;DHT22;3037;51.068;13.780;2023-08-21T10:34:00;36.50;1.00
6018;DHT22;3037;51.068;13.780;2023-08-21T10:39:20;35.90;1.00
6018;DHT22;3037;51.068;13.780;2023-08-21T10:41:55;37.20;1.00
6018;DHT22;3037;51.068;13.780;2023-08-21T10:47:22;38.40;1.00
6018;DHT22;3037;51.068;13.780;2023-08-21T10:49:56;38.10;1.00
6018;DHT22;3037;51.068;13.780;2023-08-21T10:52:29;37.90;1.00
6018;DHT22;3037;51.068;13.780;2023-08-21T10:54:59;38.00;1.00
6018;DHT22;3037;51.068;13.780;2023-08-21T10:57:27;38.20;1.00
6018;DHT22;3037;51.068;13.780;2023-08-21T10:59:58;39.00;1.00
6018;DHT22;3037;51.068;13.780;2023-08-21T11:02:26;38.90;1.00
6018;DHT22;3037;51.068;13.780;2023-08-21T11:04:53;38.50;1.00
6018;DHT22;3037;51.068;13.780;2023-08-21T11:07:18;38.00;1.00
6018;DHT22;3037;51.068;13.780;2023-08-21T11:09:44;37.40;1.00
6018;DHT22;3037;51.068;13.780;2023-08-21T11:12:16;37.60;1.00
6018;DHT22;3037;51.068;13.780;2023-08-21T11:14:42;37.20;1.00
6018;DHT22;3037;51.068;13.780;2023-08-21T11:17:08;38.30;1.00
6018;DHT22;3037;51.068;13.780;2023-08-21T11:19:35;37.60;1.00
6018;DHT22;3037;51.068;13.780;2023-08-21T11:22:01;37.40;1.00
6018;DHT22;3037;51.068;13.780;2023-08-21T11:27:07;37.30;1.00
6018;DHT22;3037;51.068;13.780;2023-08-21T11:29:40;37.20;1.00
6018;DHT22;3037;51.068;13.780;2023-08-21T11:32:14;36.70;1.00
6018;DHT22;3037;51.068;13.780;2023-08-21T11:35:02;35.80;1.00
6018;DHT22;3037;51.068;13.780;2023-08-21T11:37:28;34.20;1.00
6018;DHT22;3037;51.068;13.780;2023-08-21T11:39:55;33.50;1.00
6018;DHT22;3037;51.068;13.780;2023-08-21T11:42:28;32.90;1.00
6018;DHT22;3037;51.068;13.780;2023-08-21T11:44:53;32.50;1.00
6018;DHT22;3037;51.068;13.780;2023-08-21T11:47:21;32.20;1.00
6018;DHT22;3037;51.068;13.780;2023-08-21T11:49:47;32.40;1.00
6018;DHT22;3037;51.068;13.780;2023-08-21T11:52:17;32.70;1.00
6018;DHT22;3037;51.068;13.780;2023-08-21T11:54:43;32.30;1.00
6018;DHT22;3037;51.068;13.780;2023-08-21T11:57:13;32.60;1.00
6018;DHT22;3037;51.068;13.780;2023-08-21T11:59:39;32.90;1.00
6018;DHT22;3037;51.068;13.780;2023-08-21T12:02:16;33.70;1.00
6018;DHT22;3037;51.068;13.780;2023-08-21T12:04:42;34.10;1.00
6018;DHT22;3037;51.068;13.780;2023-08-21T12:07:07;33.70;1.00
6018;DHT22;3037;51.068;13.780;2023-08-21T12:09:33;33.50;1.00
6018;DHT22;3037;51.068;13.780;2023-08-21T12:11:59;33.70;1.00
6018;DHT22;3037;51.068;13.780;2023-08-21T12:14:24;34.20;1.00
6018;DHT22;3037;51.068;13.780;2023-08-21T12:16:50;33.50;1.00
6018;DHT22;3037;51.068;13.780;2023-08-21T12:19:16;34.00;1.00
6018;DHT22;3037;51.068;13.780;2023-08-21T12:21:41;32.70;1.00
6018;DHT22;3037;51.068;13.780;2023-08-21T12:24:07;32.80;1.00
6018;DHT22;3037;51.068;13.780;2023-08-21T12:26:33;33.50;1.00
6018;DHT22;3037;51.068;13.780;2023-08-21T12:29:00;33.40;1.00
6018;DHT22;3037;51.068;13.780;2023-08-21T12:31:26;33.60;1.00
6018;DHT22;3037;51.068;13.780;2023-08-21T12:33:52;33.70;1.00
6018;DHT22;3037;51.068;13.780;2023-08-21T12:36:17;33.90;1.00
6018;DHT22;3037;51.068;13.780;2023-08-21T12:38:43;34.00;1.00
6018;DHT22;3037;51.068;13.780;2023-08-21T12:41:09;33.80;1.00
6018;DHT22;3037;51.068;13.780;2023-08-21T12:43:34;33.40;1.00
6018;DHT22;3037;51.068;13.780;2023-08-21T12:46:00;33.00;1.00
6018;DHT22;3037;51.068;13.780;2023-08-21T12:48:25;32.70;1.00
6018;DHT22;3037;51.068;13.780;2023-08-21T12:50:51;32.60;1.00
6018;DHT22;3037;51.068;13.780;2023-08-21T12:53:16;33.40;1.00
6018;DHT22;3037;51.068;13.780;2023-08-21T12:55:42;33.60;1.00
6018;DHT22;3037;51.068;13.780;2023-08-21T12:58:08;34.00;1.00
6018;DHT22;3037;51.068;13.780;2023-08-21T13:00:33;34.40;1.00
6018;DHT22;3037;51.068;13.780;2023-08-21T13:02:59;34.00;1.00
6018;DHT22;3037;51.068;13.780;2023-08-21T13:05:25;33.80;1.00
6018;DHT22;3037;51.068;13.780;2023-08-21T13:07:50;33.30;1.00
6018;DHT22;3037;51.068;13.780;2023-08-21T13:10:16;33.90;1.00
6018;DHT22;3037;51.068;13.780;2023-08-21T13:12:41;33.80;1.00
6018;DHT22;3037;51.068;13.780;2023-08-21T13:15:07;34.30;1.00
6018;DHT22;3037;51.068;13.780;2023-08-21T13:17:34;34.10;1.00
6018;DHT22;3037;51.068;13.780;2023-08-21T13:19:59;33.40;1.00
6018;DHT22;3037;51.068;13.780;2023-08-21T13:22:25;33.90;1.00
6018;DHT22;3037;51.068;13.780;2023-08-21T13:24:50;34.30;1.00
6018;DHT22;3037;51.068;13.780;2023-08-21T13:27:16;34.00;1.00
6018;DHT22;3037;51.068;13.780;2023-08-21T13:29:41;33.30;1.00
6018;DHT22;3037;51.068;13.780;2023-08-21T13:32:07;33.00;1.00
6018;DHT22;3037;51.068;13.780;2023-08-21T13:34:32;32.60;1.00
6018;DHT22;3037;51.068;13.780;2023-08-21T13:36:58;33.00;1.00
6018;DHT22;3037;51.068;13.780;2023-08-21T13:39:23;32.60;1.00
6018;DHT22;3037;51.068;13.780;2023-08-21T13:41:51;32.60;1.00
6018;DHT22;3037;51.068;13.780;2023-08-21T13:44:17;32.70;1.00
6018;DHT22;3037;51.068;13.780;2023-08-21T13:46:42;32.60;1.00
6018;DHT22;3037;51.068;13.780;2023-08-21T13:49:08;32.30;1.00
6018;DHT22;3037;51.068;13.780;2023-08-21T13:51:34;32.70;1.00
6018;DHT22;3037;51.068;13.780;2023-08-21T13:54:00;32.90;1.00
6018;DHT22;3037;51.068;13.780;2023-08-21T13:56:25;32.40;1.00
6018;DHT22;3037;51.068;13.780;2023-08-21T13:58:51;32.70;1.00
6018;DHT22;3037;51.068;13.780;2023-08-21T14:01:16;32.50;1.00
6018;DHT22;3037;51.068;13.780;2023-08-21T14:03:42;32.10;1.00
6018;DHT22;3037;51.068;13.780;2023-08-21T14:06:08;32.20;1.00
6018;DHT22;3037;51.068;13.780;2023-08-21T14:08:37;32.00;1.00
6018;DHT22;3037;51.068;13.780;2023-08-21T14:11:02;32.10;1.00
6018;DHT22;3037;51.068;13.780;2023-08-21T14:13:28;32.60;1.00
6018;DHT22;3037;51.068;13.780;2023-08-21T14:15:53;32.30;1.00
6018;DHT22;3037;51.068;13.780;2023-08-21T14:18:19;32.10;1.00
6018;DHT22;3037;51.068;13.780;2023-08-21T14:20:45;32.40;1.00
6018;DHT22;3037;51.068;13.780;2023-08-21T14:23:10;32.50;1.00
6018;DHT22;3037;51.068;13.780;2023-08-21T14:25:36;32.20;1.00
6018;DHT22;3037;51.068;13.780;2023-08-21T14:28:03;31.80;1.00
6018;DHT22;3037;51.068;13.780;2023-08-21T14:30:29;31.90;1.00
6018;DHT22;3037;51.068;13.780;2023-08-21T14:32:55;32.00;1.00
6018;DHT22;3037;51.068;13.780;2023-08-21T14:35:21;32.70;1.00
6018;DHT22;3037;51.068;13.780;2023-08-21T14:37:46;32.90;1.00
6018;DHT22;3037;51.068;13.780;2023-08-21T14:40:12;33.30;1.00
6018;DHT22;3037;51.068;13.780;2023-08-21T14:42:38;33.10;1.00
6018;DHT22;3037;51.068;13.780;2023-08-21T14:45:04;32.70;1.00
6018;DHT22;3037;51.068;13.780;2023-08-21T14:47:30;32.20;1.00
6018;DHT22;3037;51.068;13.780;2023-08-21T14:49:56;31.70;1.00
6018;DHT22;3037;51.068;13.780;2023-08-21T14:52:22;31.80;1.00
6018;DHT22;3037;51.068;13.780;2023-08-21T14:54:50;31.90;1.00
6018;DHT22;3037;51.068;13.780;2023-08-21T14:57:16;32.40;1.00
6018;DHT22;3037;51.068;13.780;2023-08-21T14:59:41;32.60;1.00
6018;DHT22;3037;51.068;13.780;2023-08-21T15:02:07;32.90;1.00
6018;DHT22;3037;51.068;13.780;2023-08-21T15:04:33;32.70;1.00
6018;DHT22;3037;51.068;13.780;2023-08-21T15:06:58;32.50;1.00
6018;DHT22;3037;51.068;13.780;2023-08-21T15:09:24;32.50;1.00
6018;DHT22;3037;51.068;13.780;2023-08-21T15:11:49;32.20;1.00
6018;DHT22;3037;51.068;13.780;2023-08-21T15:14:15;32.00;1.00
6018;DHT22;3037;51.068;13.780;2023-08-21T15:16:40;32.10;1.00
6018;DHT22;3037;51.068;13.780;2023-08-21T15:19:06;31.50;1.00
6018;DHT22;3037;51.068;13.780;2023-08-21T15:21:32;31.30;1.00
6018;DHT22;3037;51.068;13.780;2023-08-21T15:23:57;31.10;1.00
6018;DHT22;3037;51.068;13.780;2023-08-21T15:26:23;30.80;1.00
6018;DHT22;3037;51.068;13.780;2023-08-21T15:28:48;30.60;1.00
6018;DHT22;3037;51.068;13.780;2023-08-21T15:31:14;30.50;1.00
6018;DHT22;3037;51.068;13.780;2023-08-21T15:33:39;30.90;1.00
6018;DHT22;3037;51.068;13.780;2023-08-21T15:36:05;30.80;1.00
6018;DHT22;3037;51.068;13.780;2023-08-21T15:38:31;30.50;1.00
6018;DHT22;3037;51.068;13.780;2023-08-21T15:40:56;30.40;1.00
6018;DHT22;3037;51.068;13.780;2023-08-21T15:43:22;30.40;1.00
6018;DHT22;3037;51.068;13.780;2023-08-21T15:45:48;30.40;1.00
6018;DHT22;3037;51.068;13.780;2023-08-21T15:48:13;30.40;1.00
6018;DHT22;3037;51.068;13.780;2023-08-21T15:50:39;30.30;1.00
6018;DHT22;3037;51.068;13.780;2023-08-21T15:53:04;30.40;1.00
6018;DHT22;3037;51.068;13.780;2023-08-21T15:55:32;30.20;1.00
6018;DHT22;3037;51.068;13.780;2023-08-21T15:57:58;30.40;1.00
6018;DHT22;3037;51.068;13.780;2023-08-21T16:00:23;30.60;1.00